• Join FlightAware (Why Join?)
  • Login
  • US Flag GB Flag 
15:41 EDT


 

Airport Tracker/Info


-or-


 

Live Flight TrackerFlight Track Log ✈ N100WX ✈ 18-Apr-2013 ✈ KBED - KMCO

Flight Track Log - Related Links

Times and Time Zones

All times are in EDT time to prevent confusion due to time zone crossing. See the N100WX flight status page for this flight to view local times or setup timezone preferences in your user account.

Time Position Orientation Groundspeed Altitude Reporting Facility
EDT Latitude Longitude Course Direction KTS MPH feet Rate Location/Type
13:11 42.4833 -71.2667 213° Southwest 193 222 1,000  Level KA90
13:12 42.5333 -71.2667 360° North 207 238 2,700 1,200 Climbing KA90
13:13 42.5167 -71.3167 246° West 219 252 3,200 1,860 Climbing KA90
13:14 42.4667 -71.3167 180° South 195 224 6,300 2,820 Climbing KA90
13:15 42.4000 -71.3167 180° South 202 232 8,900 2,220 Climbing KA90
13:16 42.3333 -71.3000 170° South 212 244 10,800 1,980 Climbing KA90
13:17 42.0501 -71.6589 213° Southwest  Level Estimated
13:17 42.2833 -71.2833 166° South 237 273 12,900  Level KA90
13:17 42.2694 -71.2786 166° South 251 289 13,400 840 Climbing Boston Center
13:18 42.2125 -71.2292 147° Southeast 251 289 14,000 300 Climbing Boston Center
13:19 42.1494 -71.1744 147° Southeast 257 296 14,100 480 Climbing Boston Center
13:20 42.0864 -71.1225 149° Southeast 262 302 15,000 1,620 Climbing Boston Center
13:21 42.0272 -71.0650 144° Southeast 262 302 17,400 1,860 Climbing Boston Center
13:22 41.9664 -71.0133 148° Southeast 262 302 18,700 1,260 Climbing Boston Center
13:23 41.9008 -70.9561 147° Southeast 262 302 19,900 1,500 Climbing Boston Center
13:24 41.8272 -70.8994 150° Southeast 282 325 21,800 1,680 Climbing Boston Center
13:25 41.7628 -70.9094 187° South 252 290 23,400 1,560 Climbing Boston Center
13:26 41.7094 -70.9692 220° Southwest 224 258 25,000 1,440 Climbing Boston Center
13:27 41.6558 -71.0342 222° Southwest 243 280 26,300 1,380 Climbing Boston Center
13:28 41.6025 -71.0964 221° Southwest 262 302 27,800 1,320 Climbing Boston Center
13:29 41.5450 -71.1586 219° Southwest 267 307 29,100 1,320 Climbing Boston Center
13:30 41.4894 -71.2208 220° Southwest 267 307 30,500 1,320 Climbing Boston Center
13:31 41.4336 -71.2856 221° Southwest 267 307 31,800 1,200 Climbing Boston Center
13:32 41.3761 -71.3528 221° Southwest 272 313 33,000 1,020 Climbing Boston Center
13:33 41.3183 -71.4175 220° Southwest 272 313 33,900 480 Climbing Boston Center
13:34 41.2522 -71.4875 219° Southwest 285 328 34,000  Climbing Boston Center
13:35 41.1861 -71.5686 223° Southwest 313 360 34,000  Level Boston Center
13:36 41.1369 -71.6656 236° Southwest 318 366 34,000  Level Boston Center
13:37 41.1000 -71.7789 247° West 323 372 34,000  Level Boston Center
13:38 41.0506 -71.8758 236° Southwest 328 377 34,000  Level Boston Center
13:39 40.9947 -71.9533 226° Southwest 328 377 34,000  Level Boston Center
13:40 40.9325 -72.0389 226° Southwest 328 377 34,000  Level Boston Center
13:41 40.8642 -72.1272 224° Southwest 323 372 34,000 540 Level Boston Center
13:42 40.8100 -72.1933 223° Southwest 318 366 35,100 960 Climbing Boston Center
13:43 40.7519 -72.2647 223° Southwest 305 351 36,000 240 Climbing Boston Center
13:46 40.5975 -72.4611 224° Southwest 324 373 36,000  Level Washington Center
13:47 40.5250 -72.5544 224° Southwest 347 399 36,000  Level Washington Center
13:48 40.4542 -72.6447 224° Southwest 355 409 36,000  Level Washington Center
13:49 40.3856 -72.7322 224° Southwest 360 414 36,000  Level Washington Center
13:50 40.3208 -72.8164 225° Southwest 348 400 36,000  Level Washington Center
13:51 40.2542 -72.9006 224° Southwest 343 395 36,000  Level Washington Center
13:52 40.1892 -72.9817 224° Southwest 338 389 36,000  Level Washington Center
13:53 40.1244 -73.0656 225° Southwest 338 389 36,000  Level Washington Center
13:54 40.0594 -73.1464 224° Southwest 338 389 36,000  Level Washington Center
13:55 39.9964 -73.2272 224° Southwest 333 383 36,000  Level Washington Center
13:56 39.9292 -73.3081 223° Southwest 333 383 36,000  Level Washington Center
13:57 39.8639 -73.3858 222° Southwest 328 377 36,000  Level Washington Center
13:58 39.8008 -73.4633 223° Southwest 321 369 36,000  Level Washington Center
13:59 39.7356 -73.5436 223° Southwest 321 369 36,000  Level Washington Center
14:00 39.6722 -73.6208 223° Southwest 321 369 36,000  Level Washington Center
14:01 39.6069 -73.7008 223° Southwest 321 369 36,000  Level Washington Center
14:02 39.5414 -73.7806 223° Southwest 321 369 36,000  Level Washington Center
14:03 39.4781 -73.8600 224° Southwest 321 369 36,000  Level Washington Center
14:04 39.4125 -73.9394 223° Southwest 321 369 36,000  Level Washington Center
14:05 39.3489 -74.0189 224° Southwest 321 369 36,000  Level Washington Center
14:06 39.2792 -74.1008 222° Southwest 321 369 36,000  Level Washington Center
14:07 39.2153 -74.1772 223° Southwest 321 369 36,000  Level Washington Center
14:08 39.1497 -74.2586 224° Southwest 321 369 36,000  Level Washington Center
14:09 39.0839 -74.3347 222° Southwest 321 369 36,000  Level Washington Center
14:10 39.0178 -74.4161 224° Southwest 321 369 36,000  Level Washington Center
14:11 38.9519 -74.4944 223° Southwest 321 369 36,000  Level Washington Center
14:12 38.8858 -74.5703 222° Southwest 321 369 36,000  Level Washington Center
14:13 38.8219 -74.6511 225° Southwest 321 369 36,000  Level Washington Center
14:14 38.7539 -74.7292 222° Southwest 321 369 36,000  Level Washington Center
14:15 38.6875 -74.7992 219° Southwest 321 369 36,000  Level Washington Center
14:16 38.6172 -74.8769 221° Southwest 328 377 36,000  Level Washington Center
14:17 38.5467 -74.9494 219° Southwest 334 384 36,000  Level Washington Center
14:18 38.4783 -75.0242 221° Southwest 334 384 36,000  Level Washington Center
14:19 38.4097 -75.0908 217° Southwest 329 379 36,000  Level Washington Center
14:20 38.3411 -75.1708 222° Southwest 329 379 36,000  Level Washington Center
14:21 38.2664 -75.2481 219° Southwest 324 373 36,000  Level Washington Center
14:22 38.2019 -75.3247 223° Southwest 324 373 36,000  Level Washington Center
14:23 38.1311 -75.3939 218° Southwest 324 373 36,000  Level Washington Center
14:24 38.0647 -75.4678 221° Southwest 324 373 36,000  Level Washington Center
14:25 37.9875 -75.5206 208° Southwest 324 373 36,000  Level Washington Center
14:26 37.9144 -75.5839 214° Southwest 324 373 36,000  Level Washington Center
14:27 37.8417 -75.6417 212° Southwest 324 373 36,000  Level Washington Center
14:28 37.7664 -75.7022 212° Southwest 324 373 36,000  Level Washington Center
14:29 37.6914 -75.7625 212° Southwest 324 373 36,000  Level Washington Center
14:30 37.6181 -75.8200 212° Southwest 324 373 36,000  Level Washington Center
14:31 37.5472 -75.8800 214° Southwest 324 373 36,000  Level Washington Center
14:32 37.4739 -75.9372 212° Southwest 324 373 36,000  Level Washington Center
14:33 37.4008 -75.9969 213° Southwest 324 373 36,000  Level Washington Center
14:34 37.3275 -76.0542 212° Southwest 324 373 36,000  Level Washington Center
14:35 37.2522 -76.1136 212° Southwest 324 373 36,000  Level Washington Center
14:36 37.1833 -76.1603 208° Southwest 324 373 36,000  Level Washington Center
14:37 37.1142 -76.2194 214° Southwest 319 367 36,000  Level Washington Center
14:38 37.0803 -76.3156 246° West 296 341 36,000  Level Washington Center
14:39 37.0503 -76.4117 249° West 296 341 36,000  Level Washington Center
14:40 37.0206 -76.5103 249° West 301 346 36,000  Level Washington Center
14:41 36.9636 -76.5769 223° Southwest 293 337 36,000  Level Washington Center
14:42 36.8942 -76.6308 212° Southwest 286 329 36,000  Level Washington Center
14:43 36.8250 -76.6842 212° Southwest 291 335 36,000  Level Washington Center
14:44 36.7556 -76.7325 209° Southwest 296 341 36,000  Level Washington Center
14:45 36.6819 -76.7936 214° Southwest 296 341 36,000  Level Washington Center
14:46 36.6189 -76.8392 210° Southwest 301 346 36,000  Level Washington Center
14:47 36.5517 -76.8900 211° Southwest 296 341 36,000  Level Washington Center
14:48 36.4822 -76.9456 213° Southwest 296 341 36,000  Level Washington Center
14:49 36.4106 -77.0036 213° Southwest 296 341 36,000  Level Washington Center
14:50 36.3431 -77.0617 215° Southwest 296 341 36,000  Level Washington Center
14:51 36.2736 -77.1147 212° Southwest 296 341 36,000  Level Washington Center
14:52 36.2147 -77.1650 215° Southwest 296 341 36,000  Level Washington Center
14:53 36.1472 -77.2203 213° Southwest 296 341 36,000 840 Level Washington Center
14:54 36.0733 -77.2803 213° Southwest 303 349 37,700 960 Climbing Washington Center
14:55 36.0100 -77.3175 205° Southwest 291 335 38,000 120 Climbing Washington Center
14:56 35.9283 -77.3492 197° South 296 341 38,000  Level Washington Center
14:57 35.8464 -77.3831 199° South 308 354 38,000  Level Washington Center
14:58 35.7603 -77.4169 198° South 313 360 38,000  Level Washington Center
14:59 35.6742 -77.4508 198° South 320 368 38,000  Level Washington Center
15:00 35.6003 -77.5206 218° Southwest 315 362 38,000  Level Washington Center
15:01 35.5303 -77.5881 218° Southwest 320 368 38,000  Level Washington Center
15:02 35.4603 -77.6550 218° Southwest 320 368 38,000  Level Washington Center
15:03 35.3900 -77.7244 219° Southwest 325 374 38,000  Level Washington Center
15:04 35.3222 -77.7914 219° Southwest 325 374 38,000  Level Washington Center
15:05 35.2519 -77.8556 217° Southwest 325 374 38,000  Level Washington Center
15:06 35.1842 -77.9225 219° Southwest 325 374 38,000  Level Washington Center
15:07 35.1158 -77.9889 218° Southwest 325 374 38,000  Level Washington Center
15:08 35.0478 -78.0556 219° Southwest 325 374 38,000  Level Washington Center
15:09 34.9425 -78.1519 217° Southwest 307 353 38,000  Level Jacksonville Center
15:10 34.8761 -78.2164 219° Southwest 312 359 38,000  Level Jacksonville Center
15:11 34.8075 -78.2808 218° Southwest 312 359 38,000  Level Jacksonville Center
15:12 34.7411 -78.3450 218° Southwest 312 359 38,000  Level Jacksonville Center
15:13 34.6747 -78.4092 218° Southwest 312 359 38,000  Level Jacksonville Center
15:14 34.6058 -78.4733 217° Southwest 312 359 38,000  Level Jacksonville Center
15:15 34.5392 -78.5347 217° Southwest 312 359 38,000  Level Jacksonville Center
15:16 34.4725 -78.5986 218° Southwest 312 359 38,000  Level Jacksonville Center
15:17 34.4058 -78.6597 217° Southwest 312 359 38,000  Level Jacksonville Center
15:18 34.3369 -78.7233 217° Southwest 312 359 38,000  Level Jacksonville Center
15:19 34.2703 -78.7869 218° Southwest 312 359 38,000  Level Jacksonville Center
15:20 34.2014 -78.8478 216° Southwest 312 359 38,000  Level Jacksonville Center
15:21 34.1303 -78.9114 217° Southwest 312 359 38,000  Level Jacksonville Center
15:22 34.0656 -78.9744 219° Southwest 312 359 38,000  Level Jacksonville Center
15:23 33.9967 -79.0378 217° Southwest 312 359 38,000  Level Jacksonville Center
15:24 33.9297 -79.1008 218° Southwest 312 359 38,000  Level Jacksonville Center
15:25 33.8606 -79.1636 217° Southwest 312 359 38,000  Level Jacksonville Center
15:26 33.7914 -79.2242 216° Southwest 312 359 38,000  Level Jacksonville Center
15:27 33.7244 -79.2867 218° Southwest 312 359 38,000  Level Jacksonville Center
15:28 33.6672 -79.3342 215° Southwest 287 330 38,000  Level Jacksonville Center
15:29 33.6003 -79.3992 219° Southwest 292 336 38,000  Level Jacksonville Center
15:30 33.5331 -79.4617 218° Southwest 303 349 38,000  Level Jacksonville Center
15:31 33.4619 -79.5267 217° Southwest 308 354 38,000  Level Jacksonville Center
15:32 33.3925 -79.5864 216° Southwest 313 360 38,000  Level Jacksonville Center
15:33 33.3167 -79.6414 211° Southwest 313 360 38,000  Level Jacksonville Center
15:34 33.2450 -79.6986 214° Southwest 325 374 38,000  Level Jacksonville Center
15:35 33.1633 -79.7636 214° Southwest 325 374 38,000  Level Jacksonville Center
15:36 33.0894 -79.8208 213° Southwest 325 374 38,000  Level Jacksonville Center
15:37 33.0136 -79.8803 213° Southwest 325 374 38,000  Level Jacksonville Center
15:38 32.9400 -79.9372 213° Southwest 325 374 38,000  Level Jacksonville Center
15:39 32.8639 -79.9942 212° Southwest 325 374 38,000  Level Jacksonville Center
15:40 32.7922 -80.0533 215° Southwest 325 374 38,000  Level Jacksonville Center
15:41 32.7183 -80.1100 213° Southwest 325 374 38,000  Level Jacksonville Center
15:42 32.6444 -80.1689 214° Southwest 325 374 38,000  Level Jacksonville Center
15:43 32.5706 -80.2253 213° Southwest 325 374 38,000  Level Jacksonville Center
15:44 32.4967 -80.2842 214° Southwest 325 374 38,000  Level Jacksonville Center
15:45 32.4206 -80.3431 213° Southwest 325 374 38,000  Level Jacksonville Center
15:46 32.3486 -80.3992 213° Southwest 325 374 38,000  Level Jacksonville Center
15:47 32.2747 -80.4553 213° Southwest 320 368 38,000  Level Jacksonville Center
15:48 32.1986 -80.5136 213° Southwest 332 382 38,000  Level Jacksonville Center
15:49 32.1347 -80.5667 215° Southwest 325 374 38,000  Level Jacksonville Center
15:50 32.0503 -80.6303 213° Southwest 325 374 38,000  Level Jacksonville Center
15:51 31.9822 -80.6808 212° Southwest 325 374 38,000  Level Jacksonville Center
15:52 31.9000 -80.7442 213° Southwest 330 380 38,000  Level Jacksonville Center
15:53 31.8236 -80.8019 213° Southwest 324 373 38,000  Level Jacksonville Center
15:54 31.7556 -80.8547 213° Southwest 324 373 38,000  Level Jacksonville Center
15:55 31.6731 -80.9128 211° Southwest 324 373 38,000  Level Jacksonville Center
15:56 31.5986 -80.9706 213° Southwest 324 373 38,000  Level Jacksonville Center
15:57 31.5306 -81.0206 212° Southwest 329 379 38,000 -600 Level Jacksonville Center
15:58 31.4439 -81.0881 214° Southwest 336 387 36,900 -1,020 Descending Jacksonville Center
15:59 31.3611 -81.1506 213° Southwest 361 415 36,000 -480 Descending Jacksonville Center
16:00 31.2764 -81.2153 213° Southwest 366 421 36,000  Level Jacksonville Center
16:01 31.1981 -81.2775 214° Southwest 356 410 36,000  Level Jacksonville Center
16:02 31.1150 -81.3275 207° Southwest 344 396 36,000  Level Jacksonville Center
16:03 31.0147 -81.3144 174° South 336 387 36,000  Level Jacksonville Center
16:04 30.9164 -81.3042 175° South 348 400 36,000  Level Jacksonville Center
16:05 30.8161 -81.2911 174° South 353 406 36,000 -300 Level Jacksonville Center
16:06 30.7178 -81.2808 175° South 358 412 35,400 -780 Descending Jacksonville Center
16:07 30.6111 -81.2681 174° South 370 426 34,500 -720 Descending Jacksonville Center
16:08 30.5044 -81.2531 173° South 383 441 34,000 -300 Descending Jacksonville Center
16:09 30.3978 -81.2406 174° South 388 447 34,000  Level Jacksonville Center
16:10 30.2933 -81.2278 174° South 388 447 34,000  Level Jacksonville Center
16:11 30.1825 -81.2153 174° South 396 456 34,000 -900 Level Jacksonville Center
16:12 30.0653 -81.2031 175° South 409 471 32,200 -2,100 Descending Jacksonville Center
16:13 29.9461 -81.1906 175° South 423 487 29,900 -2,340 Descending Jacksonville Center
16:14 29.8269 -81.1761 174° South 428 493 27,600 -2,340 Descending Jacksonville Center
16:15 29.7119 -81.1636 175° South 428 493 25,300 -2,220 Descending Jacksonville Center
16:16 29.6011 -81.1514 175° South 418 481 23,200 -2,100 Descending Jacksonville Center
16:17 29.4944 -81.1389 174° South 406 467 21,200 -1,980 Descending Jacksonville Center
16:18 29.4006 -81.1239 172° South 381 438 19,300 -1,800 Descending Jacksonville Center
16:19 29.3083 -81.1136 174° South 357 411 17,600 -1,740 Descending Jacksonville Center
16:20 29.2206 -81.1081 177° South 331 381 15,900 -1,680 Descending Jacksonville Center
16:21 29.1369 -81.1000 175° South 318 366 14,300 -1,620 Descending Jacksonville Center
16:22 29.0514 -81.0944 177° South 313 360 12,700 -1,200 Descending Jacksonville Center
16:23 28.9719 -81.0864 175° South 308 354 12,000 -840 Descending Jacksonville Center
16:24 28.8969 -81.0831 178° South 289 333 11,100 -960 Descending Jacksonville Center
16:25 28.8333 -81.0833 180° South 266 306 10,400 -1,800 Descending Orlando TRACON
16:26 28.7667 -81.1167 204° Southwest 238 274 7,700 -2,280 Descending Orlando TRACON
16:27 28.7333 -81.1500 221° Southwest 236 272 5,900 -2,100 Descending Orlando TRACON
16:28 28.6833 -81.2167 229° Southwest 220 253 3,500 -1,320 Descending Orlando TRACON
16:29 28.6333 -81.2500 210° Southwest 207 238 3,100 -300 Descending Orlando TRACON
16:30 28.5833 -81.3000 221° Southwest 212 244 2,900 -420 Descending Orlando TRACON
16:31 28.5500 -81.3167 204° Southwest 166 191 2,400 -900 Descending Orlando TRACON
16:32 28.5000 -81.3333 196° South 120 138 1,300 -840 Descending Orlando TRACON
16:33 28.4833 -81.3333 180° South 109 125 700 -600 Descending Orlando TRACON
16:35 28.4294 -81.3090 127° Southeast  Level Estimated
16:42 28.4294 -81.3090 336° Northwest  Level Estimated
16:43 28.4294 -81.3090 336° Northwest  Level Estimated
16:44 28.4294 -81.3090 336° Northwest  Level Estimated
16:45 28.4294 -81.3090 336° Northwest  Level Estimated